Los Angeles (LAX/KLAX)

Information

Location
Los Angeles, CA
Local Time
12:42 / 12:42 pm
GMT Time
19:42 / 7:42 pm
  • Traffic destined to KLAX is facing an average delay of 51 minutes due to RWY-TAXI / CONSTRUCTION.
METAR KLAX 281853Z 34013G21KT 10SM FEW070 SCT160 27/M01 A2980 RMK AO2 SLP088 T02671006
TAF KLAX 281722Z 2818/2924 35015G25KT P6SM SKC FM282100 28018G28KT P6SM SKC FM290300 30012KT P6SM SKC FM290600 35006KT P6SM SKC FM291200 06008KT P6SM SKC FM292000 26014KT P6SM SKC